Time;durP1;ratioP1;P1;durP2;ratioP2;P2;SDS_P1;SDS_P2;PMS_P1;PMS_P2;Temp;Humidity;BMP_temperature;BMP_pressure;BME280_temperature;BME280_humidity;BME280_pressure;Samples;Min_cycle;Max_cycle;Signal;HPM_P1;HPM_P2
2024/04/05 00:01:43;;;;;;;9.40;3.67;;;;;;;;;;5093366;28;20190;-89
2024/04/05 00:04:09;;;;;;;9.10;3.00;;;;;;;;;;5093214;28;20222;-88
2024/04/05 00:06:36;;;;;;;10.87;3.70;;;;;;;;;;5091919;28;20198;-89
2024/04/05 00:09:03;;;;;;;8.63;2.93;;;;;;;;;;5093170;28;20199;-89
2024/04/05 00:11:31;;;;;;;8.83;3.13;;;;;;;;;;5092738;28;20198;-89
2024/04/05 00:13:57;;;;;;;7.87;2.90;;;;;;;;;;5092930;28;20197;-90
2024/04/05 00:16:24;;;;;;;10.07;2.90;;;;;;;;;;5092707;28;20198;-87
2024/04/05 00:18:52;;;;;;;10.40;2.83;;;;;;;;;;5092651;28;20224;-88
2024/04/05 00:21:19;;;;;;;7.70;2.60;;;;;;;;;;5093111;28;20241;-89
2024/04/05 00:23:46;;;;;;;9.03;2.83;;;;;;;;;;5096748;28;20222;-89
2024/04/05 00:26:13;;;;;;;8.13;2.70;;;;;;;;;;5096151;28;20282;-89
2024/04/05 00:28:39;;;;;;;6.43;2.63;;;;;;;;;;5096922;28;20222;-89
2024/04/05 00:31:08;;;;;;;8.17;3.33;;;;;;;;;;5096631;28;20201;-88
2024/04/05 00:33:35;;;;;;;11.93;2.83;;;;;;;;;;5097052;28;20288;-91
2024/04/05 00:36:04;;;;;;;8.10;2.87;;;;;;;;;;5096105;28;20202;-87
2024/04/05 00:38:31;;;;;;;4.73;1.73;;;;;;;;;;5096401;28;20198;-89
2024/04/05 00:40:58;;;;;;;7.20;2.60;;;;;;;;;;5096279;28;20202;-89
2024/04/05 00:43:24;;;;;;;6.97;2.10;;;;;;;;;;5096239;28;20230;-88
2024/04/05 00:45:52;;;;;;;7.17;2.30;;;;;;;;;;5096222;28;20205;-88
2024/04/05 00:48:19;;;;;;;8.80;2.63;;;;;;;;;;5096722;28;20182;-88
2024/04/05 00:50:47;;;;;;;8.23;2.00;;;;;;;;;;5096206;28;20186;-88
2024/04/05 00:53:17;;;;;;;7.90;2.30;;;;;;;;;;5096308;28;20202;-88
2024/04/05 00:55:45;;;;;;;9.80;2.50;;;;;;;;;;5095843;28;20239;-89
2024/04/05 00:58:12;;;;;;;5.77;2.53;;;;;;;;;;5096013;28;20198;-88
2024/04/05 01:00:40;;;;;;;4.53;2.03;;;;;;;;;;5096322;28;20195;-89
2024/04/05 01:03:06;;;;;;;6.33;2.33;;;;;;;;;;5095588;28;20322;-89
2024/04/05 01:05:34;;;;;;;6.97;2.17;;;;;;;;;;5096096;28;20677;-88
2024/04/05 01:08:00;;;;;;;10.33;2.30;;;;;;;;;;5096275;28;20626;-88
2024/04/05 01:10:29;;;;;;;8.10;2.30;;;;;;;;;;5094581;28;20199;-88
2024/04/05 01:12:59;;;;;;;10.63;2.73;;;;;;;;;;5095667;28;20197;-89
2024/04/05 01:15:26;;;;;;;7.97;2.50;;;;;;;;;;5095710;28;20194;-88
2024/04/05 01:17:52;;;;;;;7.47;2.30;;;;;;;;;;5096077;28;20558;-88
2024/04/05 01:20:20;;;;;;;5.23;2.40;;;;;;;;;;5095348;28;20193;-88
2024/04/05 01:22:51;;;;;;;10.17;3.03;;;;;;;;;;5095704;28;20213;-89
2024/04/05 01:25:20;;;;;;;5.33;2.40;;;;;;;;;;5095591;28;20260;-88
2024/04/05 01:27:46;;;;;;;7.00;2.00;;;;;;;;;;5096093;28;20199;-88
2024/04/05 01:30:14;;;;;;;5.27;2.17;;;;;;;;;;5095758;28;20202;-87
2024/04/05 01:32:40;;;;;;;5.93;2.53;;;;;;;;;;5095175;28;20240;-88
2024/04/05 01:35:07;;;;;;;8.93;2.47;;;;;;;;;;5094712;28;20256;-88
2024/04/05 01:37:33;;;;;;;6.17;2.07;;;;;;;;;;5095229;28;20256;-88
2024/04/05 01:40:01;;;;;;;6.63;2.00;;;;;;;;;;5095213;28;20195;-88
2024/04/05 01:42:28;;;;;;;3.87;1.60;;;;;;;;;;5095326;28;20244;-88
2024/04/05 01:44:56;;;;;;;7.23;2.60;;;;;;;;;;5094901;28;20674;-87
2024/04/05 01:47:22;;;;;;;5.37;2.30;;;;;;;;;;5095403;28;20195;-88
2024/04/05 01:49:49;;;;;;;7.10;2.30;;;;;;;;;;5095290;28;20200;-88
2024/04/05 01:52:15;;;;;;;7.00;2.00;;;;;;;;;;5095478;28;20625;-86
2024/04/05 01:54:43;;;;;;;7.30;2.07;;;;;;;;;;5094873;28;20241;-88
2024/04/05 01:57:09;;;;;;;6.50;1.93;;;;;;;;;;5095428;28;20191;-88
2024/04/05 01:59:37;;;;;;;6.03;1.70;;;;;;;;;;5095042;28;20263;-89
2024/04/05 02:02:04;;;;;;;7.47;1.90;;;;;;;;;;5095008;28;20214;-88
2024/04/05 02:04:31;;;;;;;5.10;1.80;;;;;;;;;;5095191;28;20222;-88
2024/04/05 02:06:57;;;;;;;3.80;1.60;;;;;;;;;;5094648;28;20248;-88
2024/04/05 02:09:24;;;;;;;5.60;2.00;;;;;;;;;;5094862;28;20199;-88
2024/04/05 02:11:51;;;;;;;4.97;2.00;;;;;;;;;;5095134;28;20222;-87
2024/04/05 02:14:18;;;;;;;6.50;2.00;;;;;;;;;;5094646;28;20209;-88
2024/04/05 02:16:46;;;;;;;6.00;2.00;;;;;;;;;;5093830;28;20552;-88
2024/04/05 02:19:13;;;;;;;6.07;2.00;;;;;;;;;;5094529;28;20198;-88
2024/04/05 02:21:39;;;;;;;6.47;2.17;;;;;;;;;;5094333;28;20199;-88
2024/04/05 02:24:07;;;;;;;6.87;2.30;;;;;;;;;;5094222;28;20354;-89
2024/04/05 02:26:33;;;;;;;6.17;1.60;;;;;;;;;;5094232;28;20291;-89
2024/04/05 02:29:00;;;;;;;8.80;1.80;;;;;;;;;;5094481;28;20728;-88
2024/04/05 02:31:26;;;;;;;5.60;2.00;;;;;;;;;;5094488;28;20675;-89
2024/04/05 02:33:55;;;;;;;5.90;1.70;;;;;;;;;;5094520;28;20206;-87
2024/04/05 02:36:21;;;;;;;4.47;1.60;;;;;;;;;;5093684;28;20195;-87
2024/04/05 02:38:49;;;;;;;4.33;1.67;;;;;;;;;;5094219;28;20330;-88
2024/04/05 02:41:15;;;;;;;7.47;2.50;;;;;;;;;;5094033;28;20228;-88
2024/04/05 02:43:42;;;;;;;4.67;1.83;;;;;;;;;;5094084;28;20279;-88
2024/04/05 02:46:09;;;;;;;5.17;1.73;;;;;;;;;;5093019;28;20190;-88
2024/04/05 02:48:36;;;;;;;6.33;1.97;;;;;;;;;;5093749;28;20679;-88
2024/04/05 02:51:04;;;;;;;7.10;2.10;;;;;;;;;;5093640;28;20202;-89
2024/04/05 02:53:32;;;;;;;5.47;1.80;;;;;;;;;;5094103;28;20256;-87
2024/04/05 02:55:58;;;;;;;6.97;2.00;;;;;;;;;;5094116;28;20191;-87
2024/04/05 02:58:25;;;;;;;5.03;2.13;;;;;;;;;;5093495;28;20572;-88
2024/04/05 03:00:54;;;;;;;7.67;2.00;;;;;;;;;;5093853;28;20255;-88
2024/04/05 03:03:22;;;;;;;4.97;1.83;;;;;;;;;;5094034;28;20183;-88
2024/04/05 03:05:48;;;;;;;6.37;2.13;;;;;;;;;;5093434;28;20243;-88
2024/04/05 03:08:17;;;;;;;5.10;1.70;;;;;;;;;;5093704;28;20203;-88
2024/04/05 03:10:43;;;;;;;4.50;1.80;;;;;;;;;;5093801;28;20202;-89
2024/04/05 03:13:10;;;;;;;3.70;1.90;;;;;;;;;;5093524;28;20190;-88
2024/04/05 03:15:37;;;;;;;6.47;2.10;;;;;;;;;;5093854;28;20199;-88
2024/04/05 03:18:05;;;;;;;5.27;1.90;;;;;;;;;;5093754;28;20186;-88
2024/04/05 03:20:31;;;;;;;5.23;2.10;;;;;;;;;;5093497;28;20569;-87
2024/04/05 03:22:58;;;;;;;4.20;2.03;;;;;;;;;;5093189;28;20190;-88
2024/04/05 03:25:26;;;;;;;3.77;1.50;;;;;;;;;;5092923;28;20260;-88
2024/04/05 03:27:53;;;;;;;5.43;1.93;;;;;;;;;;5093439;28;20289;-88
2024/04/05 03:30:19;;;;;;;6.10;1.90;;;;;;;;;;5093226;28;20236;-88
2024/04/05 03:32:47;;;;;;;4.50;1.77;;;;;;;;;;5093271;28;20236;-88
2024/04/05 03:35:14;;;;;;;5.57;1.97;;;;;;;;;;5092694;28;20226;-87
2024/04/05 03:37:42;;;;;;;5.30;1.60;;;;;;;;;;5093287;28;20194;-87
2024/04/05 03:40:08;;;;;;;4.17;1.93;;;;;;;;;;5093034;28;20247;-88
2024/04/05 03:42:37;;;;;;;7.93;2.07;;;;;;;;;;5093103;28;20202;-87
2024/04/05 03:45:04;;;;;;;3.53;1.40;;;;;;;;;;5093054;28;20226;-88
2024/04/05 03:47:31;;;;;;;5.40;1.90;;;;;;;;;;5092946;28;20285;-88
2024/04/05 03:49:57;;;;;;;3.57;1.67;;;;;;;;;;5092493;28;20190;-87
2024/04/05 03:52:25;;;;;;;5.50;1.80;;;;;;;;;;5093542;28;20237;-88
2024/04/05 03:54:51;;;;;;;6.17;2.30;;;;;;;;;;5092777;28;20202;-87
2024/04/05 03:57:21;;;;;;;6.83;2.40;;;;;;;;;;5094684;28;20209;-87
2024/04/05 03:59:50;;;;;;;7.63;1.83;;;;;;;;;;5097048;28;20202;-88
2024/04/05 04:02:16;;;;;;;4.17;1.77;;;;;;;;;;5096280;28;20244;-87
2024/04/05 04:04:44;;;;;;;3.90;1.90;;;;;;;;;;5096448;28;20218;-86
2024/04/05 04:07:10;;;;;;;3.27;1.77;;;;;;;;;;5096643;28;20217;-88
2024/04/05 04:09:37;;;;;;;8.37;1.97;;;;;;;;;;5096491;28;20222;-88
2024/04/05 04:12:04;;;;;;;4.40;1.87;;;;;;;;;;5096065;28;20701;-87
2024/04/05 04:14:32;;;;;;;6.30;1.97;;;;;;;;;;5096471;28;20279;-88
2024/04/05 04:16:59;;;;;;;5.37;2.40;;;;;;;;;;5096320;28;20199;-87
2024/04/05 04:19:27;;;;;;;7.03;2.47;;;;;;;;;;5096082;28;20187;-87
2024/04/05 04:21:53;;;;;;;7.50;2.10;;;;;;;;;;5096649;28;20226;-87
2024/04/05 04:24:20;;;;;;;4.40;1.73;;;;;;;;;;5096578;28;20240;-88
2024/04/05 04:26:47;;;;;;;7.77;2.40;;;;;;;;;;5096157;28;20651;-88
2024/04/05 04:29:14;;;;;;;6.70;2.07;;;;;;;;;;5095782;28;20206;-86
2024/04/05 04:31:42;;;;;;;7.90;2.50;;;;;;;;;;5096006;28;20244;-87
2024/04/05 04:34:11;;;;;;;6.67;2.03;;;;;;;;;;5095825;28;20199;-87
2024/04/05 04:36:37;;;;;;;5.47;2.37;;;;;;;;;;5096563;28;20641;-87
2024/04/05 04:39:08;;;;;;;4.47;2.60;;;;;;;;;;5095805;28;20206;-87
2024/04/05 04:41:34;;;;;;;8.03;2.20;;;;;;;;;;5096007;28;20251;-89
2024/04/05 04:44:01;;;;;;;8.10;2.47;;;;;;;;;;5095774;28;20308;-88
2024/04/05 04:46:28;;;;;;;8.50;2.70;;;;;;;;;;5095882;28;20847;-87
2024/04/05 04:48:57;;;;;;;9.30;2.50;;;;;;;;;;5095881;28;20195;-87
2024/04/05 04:51:26;;;;;;;8.30;2.20;;;;;;;;;;5095830;28;20190;-87
2024/04/05 04:53:53;;;;;;;7.27;2.20;;;;;;;;;;5096736;28;20230;-88
2024/04/05 04:56:19;;;;;;;6.07;2.03;;;;;;;;;;5096819;28;20186;-88
2024/04/05 04:58:47;;;;;;;6.33;2.20;;;;;;;;;;5096420;28;20198;-88
2024/04/05 05:01:13;;;;;;;6.60;2.17;;;;;;;;;;5096163;28;20617;-88
2024/04/05 05:03:41;;;;;;;8.77;1.90;;;;;;;;;;5095453;28;20187;-88
2024/04/05 05:06:07;;;;;;;6.67;2.03;;;;;;;;;;5095608;28;20195;-88
2024/04/05 05:08:36;;;;;;;8.47;2.30;;;;;;;;;;5094778;28;20581;-88
2024/04/05 05:11:03;;;;;;;5.40;1.90;;;;;;;;;;5096181;28;20289;-87
2024/04/05 05:13:30;;;;;;;5.37;2.00;;;;;;;;;;5087177;28;20203;-85
2024/04/05 05:15:56;;;;;;;5.53;1.93;;;;;;;;;;5073560;28;20199;-84
2024/04/05 05:18:24;;;;;;;6.20;1.90;;;;;;;;;;5074109;28;20252;-85
2024/04/05 05:20:51;;;;;;;7.83;2.10;;;;;;;;;;5074004;28;20219;-85
2024/04/05 05:23:19;;;;;;;7.17;2.07;;;;;;;;;;5074041;28;20541;-86
2024/04/05 05:25:49;;;;;;;7.73;2.23;;;;;;;;;;5073714;28;20289;-85
2024/04/05 05:28:16;;;;;;;6.70;1.90;;;;;;;;;;5074127;28;20298;-88
2024/04/05 05:30:42;;;;;;;5.20;1.83;;;;;;;;;;5073653;28;20729;-85
2024/04/05 05:33:10;;;;;;;7.77;1.80;;;;;;;;;;5074011;28;20207;-85
2024/04/05 05:35:36;;;;;;;8.87;2.10;;;;;;;;;;5073483;28;20238;-85
2024/04/05 05:38:04;;;;;;;8.13;1.80;;;;;;;;;;5074354;28;20221;-87
2024/04/05 05:40:31;;;;;;;8.00;2.00;;;;;;;;;;5073709;28;20683;-84
2024/04/05 05:42:59;;;;;;;6.23;1.90;;;;;;;;;;5075774;28;20199;-86
2024/04/05 05:45:25;;;;;;;6.20;1.90;;;;;;;;;;5088015;28;20253;-86
2024/04/05 05:47:53;;;;;;;5.20;2.00;;;;;;;;;;5089459;28;20576;-86
2024/04/05 05:50:20;;;;;;;4.73;1.83;;;;;;;;;;5079451;28;20203;-86
2024/04/05 05:52:47;;;;;;;6.27;1.70;;;;;;;;;;5083381;28;20645;-87
2024/04/05 05:55:14;;;;;;;3.77;1.60;;;;;;;;;;5092926;28;20671;-85
2024/04/05 05:57:41;;;;;;;8.30;2.10;;;;;;;;;;5093777;28;20343;-85
2024/04/05 06:00:10;;;;;;;4.57;1.53;;;;;;;;;;5092640;28;20275;-84
2024/04/05 06:02:38;;;;;;;5.13;1.80;;;;;;;;;;5093214;28;20202;-85
2024/04/05 06:05:05;;;;;;;4.23;1.30;;;;;;;;;;5093057;28;20222;-84
2024/04/05 06:07:32;;;;;;;6.30;1.93;;;;;;;;;;5089453;28;20322;-86
2024/04/05 06:09:58;;;;;;;5.77;2.07;;;;;;;;;;5073244;28;20214;-86
2024/04/05 06:12:26;;;;;;;4.93;1.90;;;;;;;;;;5073017;28;20226;-86
2024/04/05 06:14:53;;;;;;;5.30;1.77;;;;;;;;;;5091735;28;20202;-84
2024/04/05 06:17:23;;;;;;;5.23;1.77;;;;;;;;;;5093724;28;20198;-86
2024/04/05 06:19:52;;;;;;;4.40;1.77;;;;;;;;;;5093069;28;20198;-85
2024/04/05 06:22:20;;;;;;;6.37;2.40;;;;;;;;;;5092993;28;20209;-86
2024/04/05 06:24:49;;;;;;;4.50;1.70;;;;;;;;;;5090982;28;20229;-85
2024/04/05 06:27:16;;;;;;;4.50;1.60;;;;;;;;;;5084274;28;20206;-84
2024/04/05 06:29:43;;;;;;;6.70;1.70;;;;;;;;;;5091457;28;20198;-85
2024/04/05 06:32:10;;;;;;;8.53;2.03;;;;;;;;;;5092585;28;20910;-84
2024/04/05 06:34:41;;;;;;;6.53;1.83;;;;;;;;;;5092496;28;20198;-84
2024/04/05 06:37:09;;;;;;;8.53;2.00;;;;;;;;;;5092430;28;20781;-82
2024/04/05 06:39:35;;;;;;;5.70;1.90;;;;;;;;;;5092289;28;20634;-84
2024/04/05 06:42:02;;;;;;;6.13;2.10;;;;;;;;;;5092587;28;20198;-84
2024/04/05 06:44:34;;;;;;;5.23;2.20;;;;;;;;;;5092142;28;20253;-83
2024/04/05 06:47:01;;;;;;;5.10;1.90;;;;;;;;;;5092570;28;20203;-85
2024/04/05 06:49:28;;;;;;;5.17;1.60;;;;;;;;;;5092206;28;20655;-85
2024/04/05 06:51:56;;;;;;;4.97;2.03;;;;;;;;;;5092456;28;20260;-84
2024/04/05 06:54:22;;;;;;;5.67;1.83;;;;;;;;;;5092627;28;20655;-84
2024/04/05 06:56:50;;;;;;;6.80;2.20;;;;;;;;;;5092034;28;20202;-84
2024/04/05 06:59:16;;;;;;;4.73;1.90;;;;;;;;;;5091939;28;20195;-83
2024/04/05 07:01:43;;;;;;;5.17;1.80;;;;;;;;;;5084704;28;20338;-88
2024/04/05 07:04:11;;;;;;;6.00;2.00;;;;;;;;;;5085457;28;20271;-86
2024/04/05 07:06:38;;;;;;;4.20;1.70;;;;;;;;;;5092373;28;20200;-86
2024/04/05 07:09:08;;;;;;;2.93;1.70;;;;;;;;;;5092530;28;20218;-86
2024/04/05 07:11:37;;;;;;;4.57;1.53;;;;;;;;;;5092480;28;20575;-86
2024/04/05 07:14:04;;;;;;;5.23;1.97;;;;;;;;;;5092010;28;20623;-86
2024/04/05 07:16:31;;;;;;;4.13;1.63;;;;;;;;;;5092456;28;20189;-84
2024/04/05 07:18:58;;;;;;;4.70;1.70;;;;;;;;;;5092620;28;20195;-86
2024/04/05 07:21:24;;;;;;;4.20;1.70;;;;;;;;;;5090975;28;20281;-86
2024/04/05 07:23:54;;;;;;;5.80;1.70;;;;;;;;;;5091641;28;20246;-87
2024/04/05 07:26:22;;;;;;;4.53;1.90;;;;;;;;;;5091785;28;20230;-84
2024/04/05 07:28:51;;;;;;;4.17;1.50;;;;;;;;;;5092243;28;20229;-86
2024/04/05 07:31:18;;;;;;;5.40;1.73;;;;;;;;;;5091396;28;20214;-84
2024/04/05 07:33:45;;;;;;;5.57;1.53;;;;;;;;;;5091638;28;20297;-86
2024/04/05 07:36:11;;;;;;;2.73;1.40;;;;;;;;;;5091593;28;20606;-84
2024/04/05 07:38:38;;;;;;;5.03;1.40;;;;;;;;;;5071244;28;20671;-84
2024/04/05 07:41:05;;;;;;;6.37;1.50;;;;;;;;;;5070525;28;20280;-84
2024/04/05 07:43:34;;;;;;;4.97;1.93;;;;;;;;;;5071367;28;20207;-85
2024/04/05 07:46:00;;;;;;;7.93;1.67;;;;;;;;;;5071138;28;20254;-84
2024/04/05 07:48:27;;;;;;;3.70;1.47;;;;;;;;;;5071541;28;20638;-87
2024/04/05 07:50:57;;;;;;;5.70;1.50;;;;;;;;;;5072026;28;20203;-86
2024/04/05 07:53:24;;;;;;;4.43;1.70;;;;;;;;;;5072386;28;20199;-87
2024/04/05 07:55:51;;;;;;;3.83;1.73;;;;;;;;;;5091708;28;20198;-86
2024/04/05 07:58:18;;;;;;;4.43;1.47;;;;;;;;;;5091726;28;20198;-85
2024/04/05 08:00:46;;;;;;;5.03;1.40;;;;;;;;;;5091582;28;20202;-86
2024/04/05 08:03:14;;;;;;;6.33;1.63;;;;;;;;;;5091817;28;20228;-86
2024/04/05 08:05:40;;;;;;;5.37;1.67;;;;;;;;;;5091066;28;20226;-85
2024/04/05 08:08:08;;;;;;;5.13;2.03;;;;;;;;;;5091844;28;20198;-86
2024/04/05 08:10:34;;;;;;;4.70;1.47;;;;;;;;;;5091498;28;20201;-84
2024/04/05 08:13:01;;;;;;;4.83;1.90;;;;;;;;;;5091187;28;20732;-86
2024/04/05 08:15:29;;;;;;;5.53;1.70;;;;;;;;;;5091780;28;20194;-88
2024/04/05 08:17:58;;;;;;;4.90;1.73;;;;;;;;;;5091092;28;20623;-85
2024/04/05 08:20:25;;;;;;;5.73;1.70;;;;;;;;;;5091764;28;20186;-87
2024/04/05 08:22:52;;;;;;;5.80;1.63;;;;;;;;;;5091638;28;20202;-86
2024/04/05 08:25:18;;;;;;;5.57;1.40;;;;;;;;;;5091011;28;20256;-84
2024/04/05 08:27:47;;;;;;;3.80;1.50;;;;;;;;;;5089719;28;20237;-84
2024/04/05 08:30:13;;;;;;;4.20;1.50;;;;;;;;;;5091224;28;20200;-85
2024/04/05 08:32:41;;;;;;;6.40;1.45;;;;;;;;;;5090902;28;20202;-85
2024/04/05 08:35:09;;;;;;;4.47;1.40;;;;;;;;;;5090001;28;20194;-85
2024/04/05 08:37:37;;;;;;;3.67;1.50;;;;;;;;;;5091109;28;20199;-86
2024/04/05 08:40:04;;;;;;;4.13;1.60;;;;;;;;;;5090789;28;20195;-89
2024/04/05 08:42:34;;;;;;;7.93;1.88;;;;;;;;;;5091164;28;20202;-87
2024/04/05 08:45:01;;;;;;;4.95;1.67;;;;;;;;;;5095821;28;20226;-85
2024/04/05 08:47:28;;;;;;;4.35;1.42;;;;;;;;;;5095012;28;20256;-87
2024/04/05 08:49:55;;;;;;;5.32;2.00;;;;;;;;;;5095114;28;20735;-86
2024/04/05 08:52:24;;;;;;;5.45;1.73;;;;;;;;;;5094817;28;20202;-85
2024/04/05 08:54:50;;;;;;;5.15;1.90;;;;;;;;;;5090349;28;20255;-85
2024/04/05 08:57:17;;;;;;;3.30;1.55;;;;;;;;;;5086662;28;20209;-85
2024/04/05 08:59:48;;;;;;;3.83;1.38;;;;;;;;;;5083472;28;20211;-85
2024/04/05 09:02:17;;;;;;;3.90;1.65;;;;;;;;;;5086580;28;20670;-85
2024/04/05 09:04:43;;;;;;;4.22;1.70;;;;;;;;;;5093956;28;20224;-86
2024/04/05 09:07:11;;;;;;;4.80;1.45;;;;;;;;;;5093760;28;20277;-86
2024/04/05 09:09:42;;;;;;;5.97;1.65;;;;;;;;;;5093494;28;20258;-85
2024/04/05 09:12:14;;;;;;;4.72;1.60;;;;;;;;;;5090640;28;20217;-85
2024/04/05 09:14:41;;;;;;;2.83;1.58;;;;;;;;;;5090409;28;20289;-83
2024/04/05 09:17:14;;;;;;;4.93;1.95;;;;;;;;;;5092268;28;20203;-85
2024/04/05 09:19:40;;;;;;;4.30;1.60;;;;;;;;;;5091678;28;20654;-85
2024/04/05 09:22:08;;;;;;;5.18;1.70;;;;;;;;;;5093542;28;20202;-86
2024/04/05 09:24:34;;;;;;;4.78;1.70;;;;;;;;;;5092092;28;20205;-86
2024/04/05 09:27:04;;;;;;;3.72;1.75;;;;;;;;;;5093416;28;20257;-84
2024/04/05 09:29:31;;;;;;;4.55;1.60;;;;;;;;;;5093232;28;20199;-87
2024/04/05 09:31:58;;;;;;;4.53;1.85;;;;;;;;;;5091160;28;20199;-84
2024/04/05 09:34:28;;;;;;;4.03;1.75;;;;;;;;;;5092188;28;20203;-79
2024/04/05 09:36:56;;;;;;;5.53;2.38;;;;;;;;;;5092949;28;20233;-86
2024/04/05 09:39:23;;;;;;;7.75;2.30;;;;;;;;;;5093701;28;20194;-81
2024/04/05 09:41:50;;;;;;;5.32;1.90;;;;;;;;;;5093474;28;20277;-85
2024/04/05 09:44:18;;;;;;;6.97;2.33;;;;;;;;;;5093568;28;20559;-85
2024/04/05 09:46:46;;;;;;;4.00;1.60;;;;;;;;;;5094035;28;20686;-85
2024/04/05 09:49:12;;;;;;;6.63;1.65;;;;;;;;;;5093769;28;20206;-86
2024/04/05 09:51:44;;;;;;;4.40;1.42;;;;;;;;;;5093277;28;20199;-85
2024/04/05 09:54:12;;;;;;;8.25;2.10;;;;;;;;;;5093229;28;20203;-86
2024/04/05 09:56:38;;;;;;;8.43;1.75;;;;;;;;;;5093430;28;20194;-86
2024/04/05 09:59:07;;;;;;;6.10;1.60;;;;;;;;;;5093858;28;20229;-86
2024/04/05 10:01:35;;;;;;;3.47;1.52;;;;;;;;;;5092105;28;20286;-86
2024/04/05 10:04:03;;;;;;;4.88;1.50;;;;;;;;;;5093325;28;20187;-85
2024/04/05 10:06:35;;;;;;;4.82;1.48;;;;;;;;;;5092355;28;20321;-84
2024/04/05 10:09:15;;;;;;;4.60;1.48;;;;;;;;;;5093597;28;20202;-85
2024/04/05 10:11:41;;;;;;;6.53;1.67;;;;;;;;;;5092558;28;20218;-84
2024/04/05 10:14:08;;;;;;;4.72;1.65;;;;;;;;;;5093100;28;20645;-85
2024/04/05 10:16:36;;;;;;;3.95;1.40;;;;;;;;;;5092977;28;20590;-85
2024/04/05 10:19:10;;;;;;;5.78;1.05;;;;;;;;;;5093548;28;20230;-85
2024/04/05 10:21:37;;;;;;;3.22;1.13;;;;;;;;;;5092738;28;20203;-86
2024/04/05 10:24:05;;;;;;;8.20;1.75;;;;;;;;;;5092369;28;20200;-86
2024/04/05 10:26:33;;;;;;;4.43;1.20;;;;;;;;;;5092819;28;20272;-85
2024/04/05 10:29:04;;;;;;;6.47;1.67;;;;;;;;;;5092004;28;20198;-86
2024/04/05 10:31:32;;;;;;;4.82;2.30;;;;;;;;;;5093033;28;20581;-85
2024/04/05 10:34:02;;;;;;;4.28;1.60;;;;;;;;;;5092869;28;20963;-84
2024/04/05 10:36:29;;;;;;;7.47;1.40;;;;;;;;;;5092703;28;20194;-85
2024/04/05 10:38:56;;;;;;;4.97;1.52;;;;;;;;;;5093214;28;20621;-87
2024/04/05 10:41:22;;;;;;;6.25;1.63;;;;;;;;;;5092481;28;20729;-86
2024/04/05 10:43:50;;;;;;;8.82;1.48;;;;;;;;;;5092435;28;20628;-86
2024/04/05 10:46:17;;;;;;;4.35;1.30;;;;;;;;;;5092703;28;20222;-86
2024/04/05 10:48:45;;;;;;;7.93;1.80;;;;;;;;;;5092767;28;20205;-85
2024/04/05 10:51:13;;;;;;;8.73;1.70;;;;;;;;;;5092314;28;20195;-85
2024/04/05 10:53:40;;;;;;;7.13;1.70;;;;;;;;;;5092113;28;20614;-85
2024/04/05 10:56:09;;;;;;;8.85;1.95;;;;;;;;;;5092558;28;20674;-86
2024/04/05 10:58:38;;;;;;;8.30;1.77;;;;;;;;;;5091072;28;20198;-86
2024/04/05 11:01:04;;;;;;;7.88;1.73;;;;;;;;;;5092821;28;20195;-85
2024/04/05 11:03:32;;;;;;;5.60;1.17;;;;;;;;;;5092243;28;20198;-86
2024/04/05 11:06:02;;;;;;;5.15;1.83;;;;;;;;;;5091235;28;20288;-86
2024/04/05 11:08:31;;;;;;;8.07;1.75;;;;;;;;;;5092260;28;20202;-85
2024/04/05 11:10:57;;;;;;;7.20;1.50;;;;;;;;;;5092215;28;20239;-85
2024/04/05 11:13:27;;;;;;;7.93;1.40;;;;;;;;;;5091992;28;20723;-84
2024/04/05 11:16:00;;;;;;;7.97;1.38;;;;;;;;;;5092297;28;20259;-86
2024/04/05 11:18:27;;;;;;;4.75;1.50;;;;;;;;;;5091687;28;20644;-86
2024/04/05 11:20:53;;;;;;;8.35;1.88;;;;;;;;;;5092436;28;20205;-86
2024/04/05 11:23:21;;;;;;;7.65;1.70;;;;;;;;;;5091818;28;20865;-85
2024/04/05 11:25:53;;;;;;;6.18;1.65;;;;;;;;;;5092071;28;20317;-85
2024/04/05 11:28:23;;;;;;;7.30;1.33;;;;;;;;;;5091973;28;20190;-85
2024/04/05 11:30:49;;;;;;;7.65;1.77;;;;;;;;;;5092079;28;20659;-86
2024/04/05 11:33:16;;;;;;;7.07;1.80;;;;;;;;;;5091593;28;20247;-86
2024/04/05 11:35:43;;;;;;;8.38;1.90;;;;;;;;;;5092144;28;20210;-85
2024/04/05 11:38:11;;;;;;;9.57;1.75;;;;;;;;;;5091991;28;20281;-85
2024/04/05 11:40:37;;;;;;;4.20;1.25;;;;;;;;;;5091856;28;20272;-85
2024/04/05 11:43:08;;;;;;;6.97;1.80;;;;;;;;;;5091890;28;20345;-86
2024/04/05 11:45:35;;;;;;;4.55;1.70;;;;;;;;;;5091880;28;20299;-85
2024/04/05 11:48:02;;;;;;;6.38;1.63;;;;;;;;;;5091317;28;20209;-86
2024/04/05 11:50:33;;;;;;;7.18;1.83;;;;;;;;;;5092025;28;20663;-86
2024/04/05 11:53:00;;;;;;;5.60;1.33;;;;;;;;;;5091413;28;20212;-85
2024/04/05 11:55:27;;;;;;;5.70;1.70;;;;;;;;;;5091582;28;20214;-85
2024/04/05 11:57:54;;;;;;;3.92;1.27;;;;;;;;;;5091377;28;20202;-86
2024/04/05 12:00:22;;;;;;;4.15;1.20;;;;;;;;;;5091342;28;20198;-86
2024/04/05 12:02:49;;;;;;;5.20;1.23;;;;;;;;;;5091354;28;20202;-86
2024/04/05 12:05:16;;;;;;;6.07;1.33;;;;;;;;;;5091939;28;20771;-85
2024/04/05 12:07:44;;;;;;;4.30;1.77;;;;;;;;;;5091517;28;20289;-85
2024/04/05 12:10:10;;;;;;;6.03;1.83;;;;;;;;;;5091619;28;20220;-86
2024/04/05 12:12:38;;;;;;;7.80;1.80;;;;;;;;;;5091449;28;20238;-86
2024/04/05 12:15:05;;;;;;;6.53;1.55;;;;;;;;;;5091918;28;20631;-86
2024/04/05 12:17:35;;;;;;;7.75;1.83;;;;;;;;;;5091629;28;20737;-87
2024/04/05 12:20:03;;;;;;;4.90;1.58;;;;;;;;;;5095765;28;20286;-85
2024/04/05 12:22:30;;;;;;;5.00;1.75;;;;;;;;;;5095432;28;20294;-86
2024/04/05 12:24:56;;;;;;;6.72;1.55;;;;;;;;;;5095238;28;20577;-85
2024/04/05 12:27:24;;;;;;;4.00;1.50;;;;;;;;;;5095333;28;20221;-85
2024/04/05 12:29:50;;;;;;;5.15;1.52;;;;;;;;;;5095134;28;20736;-85
2024/04/05 12:32:17;;;;;;;6.32;1.30;;;;;;;;;;5094582;28;20206;-85
2024/04/05 12:34:45;;;;;;;3.88;0.95;;;;;;;;;;5095052;28;20195;-86
2024/04/05 12:37:21;;;;;;;6.57;1.42;;;;;;;;;;5095354;28;20742;-84
2024/04/05 12:39:48;;;;;;;7.47;1.85;;;;;;;;;;5094933;28;20297;-86
2024/04/05 12:42:16;;;;;;;4.90;1.52;;;;;;;;;;5095439;28;20559;-85
2024/04/05 12:44:43;;;;;;;6.18;1.40;;;;;;;;;;5094681;28;20196;-85
2024/04/05 12:47:10;;;;;;;5.97;1.55;;;;;;;;;;5094831;28;20226;-85
2024/04/05 12:49:37;;;;;;;5.00;1.10;;;;;;;;;;5094973;28;20251;-84
2024/04/05 12:52:06;;;;;;;5.47;1.38;;;;;;;;;;5094613;28;20233;-85
2024/04/05 12:54:32;;;;;;;5.05;1.38;;;;;;;;;;5095057;28;20251;-85
2024/04/05 12:57:00;;;;;;;2.97;1.10;;;;;;;;;;5095125;28;20202;-85
2024/04/05 12:59:27;;;;;;;4.03;1.40;;;;;;;;;;5094586;28;20202;-86
2024/04/05 13:01:54;;;;;;;4.22;0.95;;;;;;;;;;5094209;28;20199;-85
2024/04/05 13:04:20;;;;;;;3.92;1.10;;;;;;;;;;5095010;28;20264;-85
2024/04/05 13:06:48;;;;;;;5.30;1.30;;;;;;;;;;5094241;28;20237;-85
2024/04/05 13:09:16;;;;;;;2.92;1.00;;;;;;;;;;5094854;28;20685;-85
2024/04/05 13:11:43;;;;;;;5.07;1.35;;;;;;;;;;5094472;28;20230;-84
2024/04/05 13:14:09;;;;;;;4.47;1.20;;;;;;;;;;5094470;28;20272;-86
2024/04/05 13:16:37;;;;;;;5.38;1.40;;;;;;;;;;5094176;28;20238;-85
2024/04/05 13:19:03;;;;;;;5.18;1.10;;;;;;;;;;5094423;28;20190;-86
2024/04/05 13:21:32;;;;;;;3.42;0.75;;;;;;;;;;5094329;28;20202;-85
2024/04/05 13:23:58;;;;;;;4.07;1.02;;;;;;;;;;5094042;28;20194;-85
2024/04/05 13:26:27;;;;;;;4.13;0.90;;;;;;;;;;5094401;28;20628;-85
2024/04/05 13:28:55;;;;;;;2.72;0.90;;;;;;;;;;5093327;28;20620;-85
2024/04/05 13:31:23;;;;;;;3.75;0.95;;;;;;;;;;5093815;28;20663;-85
2024/04/05 13:33:49;;;;;;;5.57;1.10;;;;;;;;;;5094490;28;20209;-85
2024/04/05 13:36:18;;;;;;;3.50;0.90;;;;;;;;;;5093863;28;20205;-85
2024/04/05 13:38:44;;;;;;;2.70;0.80;;;;;;;;;;5093899;28;20671;-85
2024/04/05 13:41:13;;;;;;;4.85;0.93;;;;;;;;;;5093783;28;20202;-85
2024/04/05 13:43:41;;;;;;;3.67;1.02;;;;;;;;;;5093690;28;20202;-84
2024/04/05 13:46:10;;;;;;;3.15;0.82;;;;;;;;;;5093759;28;20222;-86
2024/04/05 13:48:37;;;;;;;2.58;0.85;;;;;;;;;;5093868;28;20221;-85
2024/04/05 13:51:06;;;;;;;2.00;0.75;;;;;;;;;;5093838;28;20204;-85
2024/04/05 13:53:33;;;;;;;3.78;1.00;;;;;;;;;;5093505;28;20202;-84
2024/04/05 13:56:00;;;;;;;2.15;0.80;;;;;;;;;;5093753;28;20237;-85
2024/04/05 13:58:27;;;;;;;2.83;0.82;;;;;;;;;;5092977;28;20202;-85
2024/04/05 14:00:56;;;;;;;4.88;0.90;;;;;;;;;;5093887;28;20194;-86
2024/04/05 14:03:24;;;;;;;5.47;0.80;;;;;;;;;;5093982;28;20251;-85
2024/04/05 14:05:51;;;;;;;2.92;0.90;;;;;;;;;;5093421;28;20222;-85
2024/04/05 14:08:18;;;;;;;3.55;0.90;;;;;;;;;;5093417;28;20226;-86
2024/04/05 14:10:46;;;;;;;4.68;1.10;;;;;;;;;;5092936;28;20260;-84
2024/04/05 14:13:12;;;;;;;5.47;0.88;;;;;;;;;;5093131;28;20223;-85
2024/04/05 14:15:40;;;;;;;6.72;1.42;;;;;;;;;;5093446;28;20281;-85
2024/04/05 14:18:08;;;;;;;2.50;1.08;;;;;;;;;;5093149;28;20198;-85
2024/04/05 14:20:39;;;;;;;2.53;0.90;;;;;;;;;;5093282;28;20252;-85
2024/04/05 14:23:05;;;;;;;2.15;0.60;;;;;;;;;;5093691;28;20555;-85
2024/04/05 14:25:33;;;;;;;3.47;1.10;;;;;;;;;;5092883;28;20230;-85
2024/04/05 14:27:59;;;;;;;3.65;1.30;;;;;;;;;;5092407;28;20199;-85
2024/04/05 14:30:26;;;;;;;4.10;1.25;;;;;;;;;;5093213;28;20207;-86
2024/04/05 14:32:53;;;;;;;4.75;1.20;;;;;;;;;;5092847;28;20198;-85
2024/04/05 14:35:21;;;;;;;3.55;1.20;;;;;;;;;;5093044;28;20775;-85
2024/04/05 14:37:48;;;;;;;3.03;1.40;;;;;;;;;;5092992;28;20201;-86
2024/04/05 14:40:15;;;;;;;3.45;1.10;;;;;;;;;;5092603;28;20619;-86
2024/04/05 14:42:41;;;;;;;4.20;1.40;;;;;;;;;;5092538;28;20206;-86
2024/04/05 14:45:09;;;;;;;5.38;1.65;;;;;;;;;;5093225;28;20221;-84